sensor_id;sensor_type;location;lat;lon;timestamp;P1;durP1;ratioP1;P2;durP2;ratioP2
29720;SDS011;23665;51.044;3.748;2022-09-09T00:01:49;7.20;;;1.30;;
29720;SDS011;23665;51.044;3.748;2022-09-09T00:04:45;9.53;;;1.77;;
29720;SDS011;23665;51.044;3.748;2022-09-09T00:10:16;4.27;;;1.33;;
29720;SDS011;23665;51.044;3.748;2022-09-09T00:15:35;3.97;;;1.20;;
29720;SDS011;23665;51.044;3.748;2022-09-09T00:20:57;3.50;;;1.40;;
29720;SDS011;23665;51.044;3.748;2022-09-09T00:23:33;5.47;;;1.50;;
29720;SDS011;23665;51.044;3.748;2022-09-09T00:28:28;4.80;;;1.30;;
29720;SDS011;23665;51.044;3.748;2022-09-09T00:30:59;4.67;;;1.50;;
29720;SDS011;23665;51.044;3.748;2022-09-09T00:33:34;3.67;;;1.10;;
29720;SDS011;23665;51.044;3.748;2022-09-09T00:35:59;7.63;;;1.20;;
29720;SDS011;23665;51.044;3.748;2022-09-09T00:38:33;6.33;;;1.57;;
29720;SDS011;23665;51.044;3.748;2022-09-09T00:41:22;4.73;;;1.00;;
29720;SDS011;23665;51.044;3.748;2022-09-09T00:57:30;7.73;;;1.50;;
29720;SDS011;23665;51.044;3.748;2022-09-09T01:03:18;1.93;;;0.90;;
29720;SDS011;23665;51.044;3.748;2022-09-09T01:06:00;3.60;;;1.30;;
29720;SDS011;23665;51.044;3.748;2022-09-09T01:12:12;4.37;;;1.30;;
29720;SDS011;23665;51.044;3.748;2022-09-09T01:17:14;2.67;;;1.13;;
29720;SDS011;23665;51.044;3.748;2022-09-09T01:19:57;5.43;;;1.50;;
29720;SDS011;23665;51.044;3.748;2022-09-09T01:22:49;5.33;;;1.57;;
29720;SDS011;23665;51.044;3.748;2022-09-09T01:27:44;4.67;;;1.20;;
29720;SDS011;23665;51.044;3.748;2022-09-09T01:30:14;7.50;;;1.10;;
29720;SDS011;23665;51.044;3.748;2022-09-09T01:32:48;9.27;;;1.60;;
29720;SDS011;23665;51.044;3.748;2022-09-09T01:35:23;7.70;;;1.83;;
29720;SDS011;23665;51.044;3.748;2022-09-09T01:37:54;7.13;;;1.13;;
29720;SDS011;23665;51.044;3.748;2022-09-09T01:40:19;6.40;;;1.70;;
29720;SDS011;23665;51.044;3.748;2022-09-09T01:42:45;7.10;;;2.17;;
29720;SDS011;23665;51.044;3.748;2022-09-09T01:45:10;5.73;;;1.40;;
29720;SDS011;23665;51.044;3.748;2022-09-09T01:47:36;7.60;;;1.17;;
29720;SDS011;23665;51.044;3.748;2022-09-09T01:50:02;3.00;;;1.10;;
29720;SDS011;23665;51.044;3.748;2022-09-09T01:52:28;5.83;;;2.43;;
29720;SDS011;23665;51.044;3.748;2022-09-09T01:54:55;7.97;;;2.33;;
29720;SDS011;23665;51.044;3.748;2022-09-09T01:57:29;6.97;;;1.83;;
29720;SDS011;23665;51.044;3.748;2022-09-09T02:00:07;4.23;;;1.60;;
29720;SDS011;23665;51.044;3.748;2022-09-09T02:05:34;7.43;;;1.57;;
29720;SDS011;23665;51.044;3.748;2022-09-09T02:08:06;7.63;;;1.70;;
29720;SDS011;23665;51.044;3.748;2022-09-09T02:10:53;8.47;;;1.97;;
29720;SDS011;23665;51.044;3.748;2022-09-09T02:13:40;7.90;;;1.70;;
29720;SDS011;23665;51.044;3.748;2022-09-09T02:16:23;6.50;;;1.27;;
29720;SDS011;23665;51.044;3.748;2022-09-09T02:21:41;7.20;;;1.33;;
29720;SDS011;23665;51.044;3.748;2022-09-09T02:24:09;4.37;;;1.47;;
29720;SDS011;23665;51.044;3.748;2022-09-09T02:26:39;6.47;;;1.70;;
29720;SDS011;23665;51.044;3.748;2022-09-09T02:29:14;9.00;;;1.80;;
29720;SDS011;23665;51.044;3.748;2022-09-09T02:31:45;12.67;;;2.00;;
29720;SDS011;23665;51.044;3.748;2022-09-09T02:34:14;3.33;;;1.13;;
29720;SDS011;23665;51.044;3.748;2022-09-09T02:36:45;6.57;;;1.50;;
29720;SDS011;23665;51.044;3.748;2022-09-09T02:39:13;8.87;;;1.60;;
29720;SDS011;23665;51.044;3.748;2022-09-09T02:41:40;9.30;;;2.07;;
29720;SDS011;23665;51.044;3.748;2022-09-09T02:44:17;7.83;;;1.70;;
29720;SDS011;23665;51.044;3.748;2022-09-09T02:52:27;6.97;;;1.63;;
29720;SDS011;23665;51.044;3.748;2022-09-09T02:55:07;8.77;;;1.97;;
29720;SDS011;23665;51.044;3.748;2022-09-09T02:57:42;8.40;;;1.40;;
29720;SDS011;23665;51.044;3.748;2022-09-09T03:00:12;11.63;;;1.60;;
29720;SDS011;23665;51.044;3.748;2022-09-09T03:02:38;12.80;;;2.10;;
29720;SDS011;23665;51.044;3.748;2022-09-09T03:05:04;8.87;;;1.83;;
29720;SDS011;23665;51.044;3.748;2022-09-09T03:07:31;6.33;;;1.60;;
29720;SDS011;23665;51.044;3.748;2022-09-09T03:09:56;8.93;;;1.97;;
29720;SDS011;23665;51.044;3.748;2022-09-09T03:12:23;9.13;;;1.90;;
29720;SDS011;23665;51.044;3.748;2022-09-09T03:14:49;11.60;;;2.07;;
29720;SDS011;23665;51.044;3.748;2022-09-09T03:17:14;8.27;;;1.63;;
29720;SDS011;23665;51.044;3.748;2022-09-09T03:19:40;6.17;;;2.03;;
29720;SDS011;23665;51.044;3.748;2022-09-09T03:22:06;8.20;;;2.23;;
29720;SDS011;23665;51.044;3.748;2022-09-09T03:24:34;7.80;;;1.53;;
29720;SDS011;23665;51.044;3.748;2022-09-09T03:27:00;6.17;;;1.37;;
29720;SDS011;23665;51.044;3.748;2022-09-09T03:29:26;10.20;;;2.17;;
29720;SDS011;23665;51.044;3.748;2022-09-09T03:31:51;10.13;;;1.90;;
29720;SDS011;23665;51.044;3.748;2022-09-09T03:34:17;9.83;;;1.90;;
29720;SDS011;23665;51.044;3.748;2022-09-09T03:36:43;13.47;;;2.13;;
29720;SDS011;23665;51.044;3.748;2022-09-09T03:39:08;11.57;;;2.13;;
29720;SDS011;23665;51.044;3.748;2022-09-09T03:41:34;9.23;;;1.90;;
29720;SDS011;23665;51.044;3.748;2022-09-09T03:43:59;9.10;;;1.70;;
29720;SDS011;23665;51.044;3.748;2022-09-09T03:46:25;10.10;;;2.03;;
29720;SDS011;23665;51.044;3.748;2022-09-09T03:48:51;9.30;;;2.47;;
29720;SDS011;23665;51.044;3.748;2022-09-09T03:51:17;8.93;;;2.27;;
29720;SDS011;23665;51.044;3.748;2022-09-09T03:53:43;10.23;;;2.10;;
29720;SDS011;23665;51.044;3.748;2022-09-09T03:56:09;9.43;;;1.63;;
29720;SDS011;23665;51.044;3.748;2022-09-09T03:58:38;16.03;;;1.63;;
29720;SDS011;23665;51.044;3.748;2022-09-09T04:01:13;7.93;;;1.87;;
29720;SDS011;23665;51.044;3.748;2022-09-09T04:03:40;5.67;;;1.83;;
29720;SDS011;23665;51.044;3.748;2022-09-09T04:06:06;10.03;;;2.27;;
29720;SDS011;23665;51.044;3.748;2022-09-09T04:08:34;14.37;;;1.93;;
29720;SDS011;23665;51.044;3.748;2022-09-09T04:11:01;12.67;;;2.83;;
29720;SDS011;23665;51.044;3.748;2022-09-09T04:13:29;9.33;;;2.30;;
29720;SDS011;23665;51.044;3.748;2022-09-09T04:15:56;9.83;;;2.10;;
29720;SDS011;23665;51.044;3.748;2022-09-09T04:18:23;13.43;;;1.97;;
29720;SDS011;23665;51.044;3.748;2022-09-09T04:20:51;7.03;;;1.87;;
29720;SDS011;23665;51.044;3.748;2022-09-09T04:23:18;11.47;;;1.70;;
29720;SDS011;23665;51.044;3.748;2022-09-09T04:25:48;15.57;;;2.13;;
29720;SDS011;23665;51.044;3.748;2022-09-09T04:28:16;9.03;;;2.00;;
29720;SDS011;23665;51.044;3.748;2022-09-09T04:30:43;10.47;;;1.63;;
29720;SDS011;23665;51.044;3.748;2022-09-09T04:33:10;13.23;;;2.07;;
29720;SDS011;23665;51.044;3.748;2022-09-09T04:35:36;7.93;;;1.80;;
29720;SDS011;23665;51.044;3.748;2022-09-09T04:38:02;9.83;;;1.70;;
29720;SDS011;23665;51.044;3.748;2022-09-09T04:40:29;8.80;;;1.87;;
29720;SDS011;23665;51.044;3.748;2022-09-09T04:42:59;8.30;;;1.70;;
29720;SDS011;23665;51.044;3.748;2022-09-09T04:45:25;16.13;;;2.93;;
29720;SDS011;23665;51.044;3.748;2022-09-09T04:47:52;15.20;;;2.60;;
29720;SDS011;23665;51.044;3.748;2022-09-09T04:50:18;10.43;;;2.20;;
29720;SDS011;23665;51.044;3.748;2022-09-09T04:52:44;9.40;;;1.40;;
29720;SDS011;23665;51.044;3.748;2022-09-09T04:55:10;14.70;;;2.00;;
29720;SDS011;23665;51.044;3.748;2022-09-09T04:57:36;5.83;;;1.53;;
29720;SDS011;23665;51.044;3.748;2022-09-09T05:00:02;13.40;;;2.33;;
29720;SDS011;23665;51.044;3.748;2022-09-09T05:02:29;10.73;;;1.80;;
29720;SDS011;23665;51.044;3.748;2022-09-09T05:04:55;14.50;;;2.07;;
29720;SDS011;23665;51.044;3.748;2022-09-09T05:07:21;12.10;;;2.27;;
29720;SDS011;23665;51.044;3.748;2022-09-09T05:19:53;11.17;;;2.20;;
29720;SDS011;23665;51.044;3.748;2022-09-09T05:22:19;11.37;;;2.53;;
29720;SDS011;23665;51.044;3.748;2022-09-09T05:24:45;7.83;;;1.80;;
29720;SDS011;23665;51.044;3.748;2022-09-09T05:27:11;11.40;;;2.73;;
29720;SDS011;23665;51.044;3.748;2022-09-09T05:29:37;13.60;;;2.80;;
29720;SDS011;23665;51.044;3.748;2022-09-09T05:32:04;11.53;;;2.93;;
29720;SDS011;23665;51.044;3.748;2022-09-09T05:34:29;13.80;;;2.87;;
29720;SDS011;23665;51.044;3.748;2022-09-09T05:36:55;11.57;;;2.30;;
29720;SDS011;23665;51.044;3.748;2022-09-09T05:39:21;9.03;;;2.13;;
29720;SDS011;23665;51.044;3.748;2022-09-09T05:41:46;16.77;;;2.47;;
29720;SDS011;23665;51.044;3.748;2022-09-09T05:44:12;13.03;;;2.43;;
29720;SDS011;23665;51.044;3.748;2022-09-09T05:46:38;13.67;;;2.13;;
29720;SDS011;23665;51.044;3.748;2022-09-09T05:49:04;9.83;;;2.37;;
29720;SDS011;23665;51.044;3.748;2022-09-09T05:51:31;6.73;;;1.63;;
29720;SDS011;23665;51.044;3.748;2022-09-09T05:53:57;4.57;;;1.83;;
29720;SDS011;23665;51.044;3.748;2022-09-09T05:56:26;10.13;;;2.17;;
29720;SDS011;23665;51.044;3.748;2022-09-09T05:58:53;15.53;;;2.53;;
29720;SDS011;23665;51.044;3.748;2022-09-09T06:01:21;15.47;;;2.70;;
29720;SDS011;23665;51.044;3.748;2022-09-09T06:03:55;11.73;;;2.10;;
29720;SDS011;23665;51.044;3.748;2022-09-09T06:06:21;10.70;;;2.10;;
29720;SDS011;23665;51.044;3.748;2022-09-09T06:08:53;13.03;;;2.13;;
29720;SDS011;23665;51.044;3.748;2022-09-09T06:11:25;8.40;;;1.57;;
29720;SDS011;23665;51.044;3.748;2022-09-09T06:13:52;8.07;;;1.27;;
29720;SDS011;23665;51.044;3.748;2022-09-09T06:16:20;8.63;;;1.40;;
29720;SDS011;23665;51.044;3.748;2022-09-09T06:18:48;7.13;;;1.40;;
29720;SDS011;23665;51.044;3.748;2022-09-09T06:21:19;12.00;;;1.43;;
29720;SDS011;23665;51.044;3.748;2022-09-09T06:23:49;8.47;;;1.40;;
29720;SDS011;23665;51.044;3.748;2022-09-09T06:26:17;11.60;;;1.70;;
29720;SDS011;23665;51.044;3.748;2022-09-09T06:28:48;6.80;;;1.50;;
29720;SDS011;23665;51.044;3.748;2022-09-09T06:31:16;9.03;;;1.97;;
29720;SDS011;23665;51.044;3.748;2022-09-09T06:33:46;10.90;;;1.33;;
29720;SDS011;23665;51.044;3.748;2022-09-09T06:36:16;6.10;;;1.20;;
29720;SDS011;23665;51.044;3.748;2022-09-09T06:38:44;6.90;;;1.37;;
29720;SDS011;23665;51.044;3.748;2022-09-09T06:41:11;8.70;;;1.73;;
29720;SDS011;23665;51.044;3.748;2022-09-09T06:43:39;10.33;;;2.23;;
29720;SDS011;23665;51.044;3.748;2022-09-09T06:46:12;11.20;;;1.83;;
29720;SDS011;23665;51.044;3.748;2022-09-09T06:48:46;7.63;;;1.30;;
29720;SDS011;23665;51.044;3.748;2022-09-09T06:51:19;13.73;;;1.63;;
29720;SDS011;23665;51.044;3.748;2022-09-09T06:53:47;11.43;;;1.80;;
29720;SDS011;23665;51.044;3.748;2022-09-09T06:58:41;7.57;;;1.77;;
29720;SDS011;23665;51.044;3.748;2022-09-09T07:01:09;9.47;;;1.90;;
29720;SDS011;23665;51.044;3.748;2022-09-09T07:03:37;8.30;;;1.43;;
29720;SDS011;23665;51.044;3.748;2022-09-09T07:06:04;9.13;;;1.30;;
29720;SDS011;23665;51.044;3.748;2022-09-09T07:08:30;13.93;;;2.83;;
29720;SDS011;23665;51.044;3.748;2022-09-09T07:11:03;12.43;;;3.10;;
29720;SDS011;23665;51.044;3.748;2022-09-09T07:13:30;10.40;;;1.50;;
29720;SDS011;23665;51.044;3.748;2022-09-09T07:16:06;8.40;;;1.50;;
29720;SDS011;23665;51.044;3.748;2022-09-09T07:18:33;7.87;;;1.37;;
29720;SDS011;23665;51.044;3.748;2022-09-09T07:20:59;7.17;;;2.03;;
29720;SDS011;23665;51.044;3.748;2022-09-09T07:23:27;10.33;;;2.00;;
29720;SDS011;23665;51.044;3.748;2022-09-09T07:25:53;9.33;;;1.63;;
29720;SDS011;23665;51.044;3.748;2022-09-09T07:28:19;9.70;;;1.37;;
29720;SDS011;23665;51.044;3.748;2022-09-09T07:33:30;8.33;;;1.47;;
29720;SDS011;23665;51.044;3.748;2022-09-09T07:36:08;8.73;;;1.27;;
29720;SDS011;23665;51.044;3.748;2022-09-09T07:38:48;8.53;;;1.60;;
29720;SDS011;23665;51.044;3.748;2022-09-09T07:41:17;9.20;;;2.43;;
29720;SDS011;23665;51.044;3.748;2022-09-09T07:43:46;7.80;;;1.33;;
29720;SDS011;23665;51.044;3.748;2022-09-09T07:46:13;6.63;;;1.37;;
29720;SDS011;23665;51.044;3.748;2022-09-09T07:48:46;7.70;;;1.40;;
29720;SDS011;23665;51.044;3.748;2022-09-09T07:51:16;11.23;;;1.53;;
29720;SDS011;23665;51.044;3.748;2022-09-09T07:53:44;6.83;;;1.70;;
29720;SDS011;23665;51.044;3.748;2022-09-09T07:56:12;10.97;;;1.70;;
29720;SDS011;23665;51.044;3.748;2022-09-09T07:58:41;5.80;;;1.30;;
29720;SDS011;23665;51.044;3.748;2022-09-09T08:01:13;7.03;;;1.90;;
29720;SDS011;23665;51.044;3.748;2022-09-09T08:04:03;8.60;;;1.40;;
29720;SDS011;23665;51.044;3.748;2022-09-09T08:06:35;7.67;;;2.20;;
29720;SDS011;23665;51.044;3.748;2022-09-09T08:09:04;6.23;;;1.10;;
29720;SDS011;23665;51.044;3.748;2022-09-09T08:11:31;9.47;;;1.97;;
29720;SDS011;23665;51.044;3.748;2022-09-09T08:13:58;9.70;;;2.03;;
29720;SDS011;23665;51.044;3.748;2022-09-09T08:16:25;6.57;;;1.60;;
29720;SDS011;23665;51.044;3.748;2022-09-09T08:18:53;9.27;;;1.90;;
29720;SDS011;23665;51.044;3.748;2022-09-09T08:21:22;12.40;;;1.60;;
29720;SDS011;23665;51.044;3.748;2022-09-09T08:23:50;8.97;;;2.00;;
29720;SDS011;23665;51.044;3.748;2022-09-09T08:26:18;10.13;;;1.67;;
29720;SDS011;23665;51.044;3.748;2022-09-09T08:28:49;8.43;;;1.73;;
29720;SDS011;23665;51.044;3.748;2022-09-09T08:31:20;8.83;;;1.47;;
29720;SDS011;23665;51.044;3.748;2022-09-09T08:33:46;8.70;;;1.80;;
29720;SDS011;23665;51.044;3.748;2022-09-09T08:36:13;6.33;;;1.63;;
29720;SDS011;23665;51.044;3.748;2022-09-09T08:38:41;8.00;;;2.43;;
29720;SDS011;23665;51.044;3.748;2022-09-09T08:44:10;8.03;;;1.53;;
29720;SDS011;23665;51.044;3.748;2022-09-09T08:46:48;8.13;;;1.70;;
29720;SDS011;23665;51.044;3.748;2022-09-09T08:49:46;6.03;;;1.57;;
29720;SDS011;23665;51.044;3.748;2022-09-09T08:52:39;15.00;;;2.23;;
29720;SDS011;23665;51.044;3.748;2022-09-09T08:57:39;7.20;;;1.33;;
29720;SDS011;23665;51.044;3.748;2022-09-09T09:00:07;8.97;;;1.67;;
29720;SDS011;23665;51.044;3.748;2022-09-09T09:05:47;7.50;;;2.00;;
29720;SDS011;23665;51.044;3.748;2022-09-09T09:08:26;10.10;;;1.47;;
29720;SDS011;23665;51.044;3.748;2022-09-09T09:11:03;8.20;;;1.37;;
29720;SDS011;23665;51.044;3.748;2022-09-09T09:18:50;6.60;;;1.67;;
29720;SDS011;23665;51.044;3.748;2022-09-09T09:21:31;8.13;;;1.40;;
29720;SDS011;23665;51.044;3.748;2022-09-09T09:24:03;6.33;;;1.47;;
29720;SDS011;23665;51.044;3.748;2022-09-09T09:26:40;11.00;;;1.63;;
29720;SDS011;23665;51.044;3.748;2022-09-09T09:29:10;8.00;;;1.80;;
29720;SDS011;23665;51.044;3.748;2022-09-09T09:31:38;9.27;;;1.67;;
29720;SDS011;23665;51.044;3.748;2022-09-09T09:34:03;8.27;;;1.53;;
29720;SDS011;23665;51.044;3.748;2022-09-09T09:37:12;7.77;;;1.03;;
29720;SDS011;23665;51.044;3.748;2022-09-09T09:41:54;6.70;;;2.27;;
29720;SDS011;23665;51.044;3.748;2022-09-09T09:46:45;6.00;;;1.70;;
29720;SDS011;23665;51.044;3.748;2022-09-09T09:49:11;7.93;;;1.37;;
29720;SDS011;23665;51.044;3.748;2022-09-09T09:51:38;6.30;;;1.20;;
29720;SDS011;23665;51.044;3.748;2022-09-09T09:54:22;6.30;;;1.57;;
29720;SDS011;23665;51.044;3.748;2022-09-09T09:56:54;5.77;;;1.20;;
29720;SDS011;23665;51.044;3.748;2022-09-09T10:01:47;6.97;;;1.03;;
29720;SDS011;23665;51.044;3.748;2022-09-09T10:06:45;6.03;;;1.40;;
29720;SDS011;23665;51.044;3.748;2022-09-09T10:09:30;4.73;;;1.30;;
29720;SDS011;23665;51.044;3.748;2022-09-09T10:20:16;4.37;;;1.30;;
29720;SDS011;23665;51.044;3.748;2022-09-09T10:38:48;4.20;;;1.33;;
29720;SDS011;23665;51.044;3.748;2022-09-09T10:59:48;6.87;;;1.40;;
29720;SDS011;23665;51.044;3.748;2022-09-09T11:02:25;2.97;;;0.80;;
29720;SDS011;23665;51.044;3.748;2022-09-09T11:04:54;5.07;;;1.20;;
29720;SDS011;23665;51.044;3.748;2022-09-09T11:07:28;3.50;;;0.93;;
29720;SDS011;23665;51.044;3.748;2022-09-09T11:13:11;5.30;;;0.90;;
29720;SDS011;23665;51.044;3.748;2022-09-09T11:16:04;4.50;;;1.07;;
29720;SDS011;23665;51.044;3.748;2022-09-09T11:18:50;6.70;;;1.20;;
29720;SDS011;23665;51.044;3.748;2022-09-09T11:21:27;30.47;;;3.93;;
29720;SDS011;23665;51.044;3.748;2022-09-09T11:24:04;15.10;;;1.93;;
29720;SDS011;23665;51.044;3.748;2022-09-09T11:26:47;25.93;;;2.83;;
29720;SDS011;23665;51.044;3.748;2022-09-09T11:40:20;4.73;;;1.30;;
29720;SDS011;23665;51.044;3.748;2022-09-09T11:42:59;1.73;;;0.40;;
29720;SDS011;23665;51.044;3.748;2022-09-09T11:45:31;3.10;;;0.70;;
29720;SDS011;23665;51.044;3.748;2022-09-09T11:47:59;5.77;;;1.00;;
29720;SDS011;23665;51.044;3.748;2022-09-09T11:55:45;7.60;;;0.97;;
29720;SDS011;23665;51.044;3.748;2022-09-09T12:00:41;1.80;;;0.60;;
29720;SDS011;23665;51.044;3.748;2022-09-09T12:06:07;5.50;;;1.00;;
29720;SDS011;23665;51.044;3.748;2022-09-09T12:08:45;9.03;;;1.43;;
29720;SDS011;23665;51.044;3.748;2022-09-09T12:11:23;5.70;;;1.30;;
29720;SDS011;23665;51.044;3.748;2022-09-09T12:13:58;3.37;;;0.90;;
29720;SDS011;23665;51.044;3.748;2022-09-09T12:16:35;3.97;;;0.90;;
29720;SDS011;23665;51.044;3.748;2022-09-09T12:19:06;6.73;;;1.23;;
29720;SDS011;23665;51.044;3.748;2022-09-09T12:27:26;3.60;;;1.40;;
29720;SDS011;23665;51.044;3.748;2022-09-09T12:30:03;6.60;;;1.20;;
29720;SDS011;23665;51.044;3.748;2022-09-09T12:32:34;4.23;;;1.30;;
29720;SDS011;23665;51.044;3.748;2022-09-09T12:35:02;5.77;;;1.10;;
29720;SDS011;23665;51.044;3.748;2022-09-09T12:37:50;4.93;;;0.63;;
29720;SDS011;23665;51.044;3.748;2022-09-09T12:40:27;7.27;;;0.70;;
29720;SDS011;23665;51.044;3.748;2022-09-09T12:43:00;3.23;;;0.70;;
29720;SDS011;23665;51.044;3.748;2022-09-09T12:45:46;4.17;;;1.10;;
29720;SDS011;23665;51.044;3.748;2022-09-09T12:48:15;6.43;;;1.10;;
29720;SDS011;23665;51.044;3.748;2022-09-09T12:50:50;3.63;;;0.90;;
29720;SDS011;23665;51.044;3.748;2022-09-09T12:53:33;7.17;;;1.03;;
29720;SDS011;23665;51.044;3.748;2022-09-09T12:56:02;6.07;;;1.13;;
29720;SDS011;23665;51.044;3.748;2022-09-09T12:58:32;4.93;;;1.50;;
29720;SDS011;23665;51.044;3.748;2022-09-09T13:00:59;3.47;;;1.20;;
29720;SDS011;23665;51.044;3.748;2022-09-09T13:03:28;4.53;;;1.00;;
29720;SDS011;23665;51.044;3.748;2022-09-09T13:05:54;5.07;;;0.90;;
29720;SDS011;23665;51.044;3.748;2022-09-09T13:08:25;5.27;;;1.20;;
29720;SDS011;23665;51.044;3.748;2022-09-09T13:10:53;6.13;;;1.27;;
29720;SDS011;23665;51.044;3.748;2022-09-09T13:16:00;5.37;;;1.20;;
29720;SDS011;23665;51.044;3.748;2022-09-09T13:18:31;5.23;;;1.00;;
29720;SDS011;23665;51.044;3.748;2022-09-09T13:21:01;6.70;;;1.57;;
29720;SDS011;23665;51.044;3.748;2022-09-09T13:23:32;7.73;;;1.17;;
29720;SDS011;23665;51.044;3.748;2022-09-09T13:26:04;3.73;;;0.93;;
29720;SDS011;23665;51.044;3.748;2022-09-09T13:28:45;12.23;;;1.43;;
29720;SDS011;23665;51.044;3.748;2022-09-09T13:33:48;8.33;;;1.03;;
29720;SDS011;23665;51.044;3.748;2022-09-09T13:36:13;2.87;;;0.90;;
29720;SDS011;23665;51.044;3.748;2022-09-09T13:41:21;3.80;;;0.90;;
29720;SDS011;23665;51.044;3.748;2022-09-09T13:43:49;11.73;;;1.07;;
29720;SDS011;23665;51.044;3.748;2022-09-09T13:49:02;5.10;;;1.17;;
29720;SDS011;23665;51.044;3.748;2022-09-09T13:51:49;3.60;;;0.83;;
29720;SDS011;23665;51.044;3.748;2022-09-09T13:54:18;2.97;;;0.83;;
29720;SDS011;23665;51.044;3.748;2022-09-09T13:56:45;2.80;;;0.70;;
29720;SDS011;23665;51.044;3.748;2022-09-09T13:59:16;7.57;;;1.13;;
29720;SDS011;23665;51.044;3.748;2022-09-09T14:01:44;7.20;;;1.27;;
29720;SDS011;23665;51.044;3.748;2022-09-09T14:04:10;3.73;;;0.63;;
29720;SDS011;23665;51.044;3.748;2022-09-09T14:06:36;2.27;;;0.93;;
29720;SDS011;23665;51.044;3.748;2022-09-09T14:09:03;4.37;;;0.70;;
29720;SDS011;23665;51.044;3.748;2022-09-09T14:11:29;2.60;;;1.03;;
29720;SDS011;23665;51.044;3.748;2022-09-09T14:13:55;5.60;;;0.93;;
29720;SDS011;23665;51.044;3.748;2022-09-09T14:21:31;3.33;;;0.80;;
29720;SDS011;23665;51.044;3.748;2022-09-09T14:23:57;6.77;;;1.50;;
29720;SDS011;23665;51.044;3.748;2022-09-09T14:26:23;5.33;;;1.10;;
29720;SDS011;23665;51.044;3.748;2022-09-09T14:28:51;5.67;;;1.20;;
29720;SDS011;23665;51.044;3.748;2022-09-09T14:31:17;5.23;;;1.07;;
29720;SDS011;23665;51.044;3.748;2022-09-09T14:33:43;5.37;;;1.20;;
29720;SDS011;23665;51.044;3.748;2022-09-09T14:36:09;8.63;;;1.40;;
29720;SDS011;23665;51.044;3.748;2022-09-09T14:38:36;6.83;;;1.10;;
29720;SDS011;23665;51.044;3.748;2022-09-09T14:41:07;3.37;;;0.80;;
29720;SDS011;23665;51.044;3.748;2022-09-09T14:43:37;7.77;;;1.30;;
29720;SDS011;23665;51.044;3.748;2022-09-09T14:46:10;4.37;;;1.20;;
29720;SDS011;23665;51.044;3.748;2022-09-09T14:48:37;7.43;;;1.00;;
29720;SDS011;23665;51.044;3.748;2022-09-09T14:51:09;2.90;;;0.60;;
29720;SDS011;23665;51.044;3.748;2022-09-09T14:53:37;4.33;;;0.97;;
29720;SDS011;23665;51.044;3.748;2022-09-09T14:56:12;3.03;;;0.80;;
29720;SDS011;23665;51.044;3.748;2022-09-09T14:58:42;4.87;;;1.13;;
29720;SDS011;23665;51.044;3.748;2022-09-09T15:01:09;4.37;;;0.97;;
29720;SDS011;23665;51.044;3.748;2022-09-09T15:03:39;5.10;;;1.00;;
29720;SDS011;23665;51.044;3.748;2022-09-09T15:06:13;1.97;;;0.50;;
29720;SDS011;23665;51.044;3.748;2022-09-09T15:08:40;3.23;;;0.63;;
29720;SDS011;23665;51.044;3.748;2022-09-09T15:11:07;5.10;;;0.70;;
29720;SDS011;23665;51.044;3.748;2022-09-09T15:13:35;7.60;;;1.00;;
29720;SDS011;23665;51.044;3.748;2022-09-09T15:16:08;3.43;;;0.83;;
29720;SDS011;23665;51.044;3.748;2022-09-09T15:18:39;3.73;;;1.07;;
29720;SDS011;23665;51.044;3.748;2022-09-09T15:21:07;4.40;;;1.07;;
29720;SDS011;23665;51.044;3.748;2022-09-09T15:23:35;6.20;;;0.90;;
29720;SDS011;23665;51.044;3.748;2022-09-09T15:26:01;2.20;;;0.73;;
29720;SDS011;23665;51.044;3.748;2022-09-09T15:28:28;2.90;;;0.90;;
29720;SDS011;23665;51.044;3.748;2022-09-09T15:30:54;3.27;;;0.60;;
29720;SDS011;23665;51.044;3.748;2022-09-09T15:33:22;4.60;;;0.77;;
29720;SDS011;23665;51.044;3.748;2022-09-09T15:35:48;4.20;;;0.60;;
29720;SDS011;23665;51.044;3.748;2022-09-09T15:38:14;3.57;;;0.87;;
29720;SDS011;23665;51.044;3.748;2022-09-09T15:40:42;8.70;;;1.20;;
29720;SDS011;23665;51.044;3.748;2022-09-09T15:43:08;6.73;;;1.33;;
29720;SDS011;23665;51.044;3.748;2022-09-09T15:45:38;3.10;;;0.77;;
29720;SDS011;23665;51.044;3.748;2022-09-09T15:48:04;3.60;;;0.73;;
29720;SDS011;23665;51.044;3.748;2022-09-09T15:50:29;5.10;;;0.70;;
29720;SDS011;23665;51.044;3.748;2022-09-09T15:52:57;6.77;;;1.10;;
29720;SDS011;23665;51.044;3.748;2022-09-09T15:55:23;8.10;;;1.20;;
29720;SDS011;23665;51.044;3.748;2022-09-09T15:57:49;5.07;;;1.40;;
29720;SDS011;23665;51.044;3.748;2022-09-09T16:00:17;4.90;;;0.90;;
29720;SDS011;23665;51.044;3.748;2022-09-09T16:02:47;4.27;;;0.87;;
29720;SDS011;23665;51.044;3.748;2022-09-09T16:05:13;3.40;;;0.97;;
29720;SDS011;23665;51.044;3.748;2022-09-09T16:07:39;4.03;;;1.20;;
29720;SDS011;23665;51.044;3.748;2022-09-09T16:10:07;4.93;;;0.90;;
29720;SDS011;23665;51.044;3.748;2022-09-09T16:12:34;4.60;;;0.83;;
29720;SDS011;23665;51.044;3.748;2022-09-09T16:14:59;4.60;;;1.23;;
29720;SDS011;23665;51.044;3.748;2022-09-09T16:17:26;3.27;;;1.00;;
29720;SDS011;23665;51.044;3.748;2022-09-09T16:19:52;4.63;;;1.10;;
29720;SDS011;23665;51.044;3.748;2022-09-09T16:22:19;5.03;;;1.17;;
29720;SDS011;23665;51.044;3.748;2022-09-09T16:24:45;3.97;;;0.90;;
29720;SDS011;23665;51.044;3.748;2022-09-09T16:27:10;3.40;;;0.83;;
29720;SDS011;23665;51.044;3.748;2022-09-09T16:29:36;3.80;;;1.20;;
29720;SDS011;23665;51.044;3.748;2022-09-09T16:32:02;3.77;;;1.10;;
29720;SDS011;23665;51.044;3.748;2022-09-09T16:34:28;6.23;;;1.17;;
29720;SDS011;23665;51.044;3.748;2022-09-09T16:36:54;6.00;;;1.23;;
29720;SDS011;23665;51.044;3.748;2022-09-09T16:39:19;2.70;;;0.97;;
29720;SDS011;23665;51.044;3.748;2022-09-09T16:41:46;2.57;;;1.03;;
29720;SDS011;23665;51.044;3.748;2022-09-09T16:44:14;6.13;;;1.33;;
29720;SDS011;23665;51.044;3.748;2022-09-09T16:46:42;6.07;;;1.37;;
29720;SDS011;23665;51.044;3.748;2022-09-09T16:49:09;6.23;;;1.30;;
29720;SDS011;23665;51.044;3.748;2022-09-09T16:51:38;5.00;;;1.30;;
29720;SDS011;23665;51.044;3.748;2022-09-09T16:54:05;3.70;;;1.00;;
29720;SDS011;23665;51.044;3.748;2022-09-09T16:56:33;7.13;;;1.53;;
29720;SDS011;23665;51.044;3.748;2022-09-09T16:59:02;8.80;;;1.50;;
29720;SDS011;23665;51.044;3.748;2022-09-09T17:01:32;7.97;;;1.57;;
29720;SDS011;23665;51.044;3.748;2022-09-09T17:04:03;6.40;;;1.47;;
29720;SDS011;23665;51.044;3.748;2022-09-09T17:06:30;4.60;;;1.13;;
29720;SDS011;23665;51.044;3.748;2022-09-09T17:09:00;7.40;;;1.50;;
29720;SDS011;23665;51.044;3.748;2022-09-09T17:11:28;3.70;;;1.13;;
29720;SDS011;23665;51.044;3.748;2022-09-09T17:13:54;12.43;;;2.60;;
29720;SDS011;23665;51.044;3.748;2022-09-09T17:16:22;9.30;;;2.40;;
29720;SDS011;23665;51.044;3.748;2022-09-09T17:18:49;7.10;;;2.30;;
29720;SDS011;23665;51.044;3.748;2022-09-09T17:21:16;9.20;;;1.93;;
29720;SDS011;23665;51.044;3.748;2022-09-09T17:23:46;8.43;;;1.80;;
29720;SDS011;23665;51.044;3.748;2022-09-09T17:26:13;8.30;;;1.53;;
29720;SDS011;23665;51.044;3.748;2022-09-09T17:28:41;6.17;;;1.23;;
29720;SDS011;23665;51.044;3.748;2022-09-09T17:31:08;9.03;;;1.70;;
29720;SDS011;23665;51.044;3.748;2022-09-09T17:33:36;4.90;;;1.40;;
29720;SDS011;23665;51.044;3.748;2022-09-09T17:36:10;6.70;;;1.77;;
29720;SDS011;23665;51.044;3.748;2022-09-09T17:38:40;3.77;;;1.47;;
29720;SDS011;23665;51.044;3.748;2022-09-09T17:43:46;6.77;;;1.40;;
29720;SDS011;23665;51.044;3.748;2022-09-09T17:48:46;7.43;;;1.50;;
29720;SDS011;23665;51.044;3.748;2022-09-09T17:51:14;5.60;;;1.63;;
29720;SDS011;23665;51.044;3.748;2022-09-09T17:53:45;7.40;;;1.60;;
29720;SDS011;23665;51.044;3.748;2022-09-09T17:56:14;8.47;;;1.73;;
29720;SDS011;23665;51.044;3.748;2022-09-09T17:58:41;7.73;;;1.90;;
29720;SDS011;23665;51.044;3.748;2022-09-09T18:01:12;7.33;;;1.97;;
29720;SDS011;23665;51.044;3.748;2022-09-09T18:03:40;7.83;;;1.60;;